sensor_id;sensor_type;location;lat;lon;timestamp;P1;durP1;ratioP1;P2;durP2;ratioP2
62707;SDS011;48769;51.624;5.886;2023-07-16T00:01:37;8.25;;;4.50;;
62707;SDS011;48769;51.624;5.886;2023-07-16T00:04:03;8.65;;;5.28;;
62707;SDS011;48769;51.624;5.886;2023-07-16T00:06:28;8.98;;;4.60;;
62707;SDS011;48769;51.624;5.886;2023-07-16T00:08:53;8.27;;;4.60;;
62707;SDS011;48769;51.624;5.886;2023-07-16T00:11:19;9.77;;;4.88;;
62707;SDS011;48769;51.624;5.886;2023-07-16T00:13:44;7.97;;;4.57;;
62707;SDS011;48769;51.624;5.886;2023-07-16T00:16:12;10.95;;;5.35;;
62707;SDS011;48769;51.624;5.886;2023-07-16T00:18:38;9.30;;;5.03;;
62707;SDS011;48769;51.624;5.886;2023-07-16T00:21:04;9.35;;;5.25;;
62707;SDS011;48769;51.624;5.886;2023-07-16T00:23:29;8.77;;;5.10;;
62707;SDS011;48769;51.624;5.886;2023-07-16T00:25:54;8.68;;;5.38;;
62707;SDS011;48769;51.624;5.886;2023-07-16T00:28:20;7.30;;;4.78;;
62707;SDS011;48769;51.624;5.886;2023-07-16T00:30:45;10.82;;;5.85;;
62707;SDS011;48769;51.624;5.886;2023-07-16T00:33:10;7.30;;;4.78;;
62707;SDS011;48769;51.624;5.886;2023-07-16T00:35:36;8.95;;;5.10;;
62707;SDS011;48769;51.624;5.886;2023-07-16T00:38:01;7.55;;;5.00;;
62707;SDS011;48769;51.624;5.886;2023-07-16T00:40:26;9.38;;;5.13;;
62707;SDS011;48769;51.624;5.886;2023-07-16T00:42:52;9.60;;;6.00;;
62707;SDS011;48769;51.624;5.886;2023-07-16T00:45:17;8.93;;;5.32;;
62707;SDS011;48769;51.624;5.886;2023-07-16T00:47:43;11.05;;;5.28;;
62707;SDS011;48769;51.624;5.886;2023-07-16T00:50:10;10.35;;;4.53;;
62707;SDS011;48769;51.624;5.886;2023-07-16T00:52:36;6.60;;;4.50;;
62707;SDS011;48769;51.624;5.886;2023-07-16T00:55:02;8.38;;;4.57;;
62707;SDS011;48769;51.624;5.886;2023-07-16T00:57:28;10.77;;;5.07;;
62707;SDS011;48769;51.624;5.886;2023-07-16T00:59:54;8.15;;;5.28;;
62707;SDS011;48769;51.624;5.886;2023-07-16T01:02:19;10.20;;;5.35;;
62707;SDS011;48769;51.624;5.886;2023-07-16T01:04:46;8.55;;;5.35;;
62707;SDS011;48769;51.624;5.886;2023-07-16T01:07:11;8.55;;;4.50;;
62707;SDS011;48769;51.624;5.886;2023-07-16T01:09:41;8.68;;;4.65;;
62707;SDS011;48769;51.624;5.886;2023-07-16T01:12:07;10.70;;;4.78;;
62707;SDS011;48769;51.624;5.886;2023-07-16T01:14:33;7.53;;;5.03;;
62707;SDS011;48769;51.624;5.886;2023-07-16T01:17:04;9.52;;;5.20;;
62707;SDS011;48769;51.624;5.886;2023-07-16T01:19:31;7.55;;;5.65;;
62707;SDS011;48769;51.624;5.886;2023-07-16T01:29:58;13.25;;;6.07;;
62707;SDS011;48769;51.624;5.886;2023-07-16T01:32:26;9.30;;;5.35;;
62707;SDS011;48769;51.624;5.886;2023-07-16T01:34:54;9.88;;;5.85;;
62707;SDS011;48769;51.624;5.886;2023-07-16T01:37:20;11.32;;;5.40;;
62707;SDS011;48769;51.624;5.886;2023-07-16T01:39:45;13.07;;;5.65;;
62707;SDS011;48769;51.624;5.886;2023-07-16T01:42:12;9.77;;;5.47;;
62707;SDS011;48769;51.624;5.886;2023-07-16T01:44:37;11.07;;;5.95;;
62707;SDS011;48769;51.624;5.886;2023-07-16T01:49:40;9.35;;;5.63;;
62707;SDS011;48769;51.624;5.886;2023-07-16T01:52:07;11.25;;;5.95;;
62707;SDS011;48769;51.624;5.886;2023-07-16T01:54:34;9.75;;;5.80;;
62707;SDS011;48769;51.624;5.886;2023-07-16T01:56:59;11.30;;;6.10;;
62707;SDS011;48769;51.624;5.886;2023-07-16T01:59:25;11.40;;;5.65;;
62707;SDS011;48769;51.624;5.886;2023-07-16T02:01:50;10.68;;;6.00;;
62707;SDS011;48769;51.624;5.886;2023-07-16T02:04:15;10.38;;;5.20;;
62707;SDS011;48769;51.624;5.886;2023-07-16T02:06:40;13.32;;;6.00;;
62707;SDS011;48769;51.624;5.886;2023-07-16T02:09:06;11.43;;;5.35;;
62707;SDS011;48769;51.624;5.886;2023-07-16T02:11:31;11.50;;;5.60;;
62707;SDS011;48769;51.624;5.886;2023-07-16T02:13:56;11.50;;;5.95;;
62707;SDS011;48769;51.624;5.886;2023-07-16T02:16:22;11.40;;;5.63;;
62707;SDS011;48769;51.624;5.886;2023-07-16T02:18:47;10.48;;;6.30;;
62707;SDS011;48769;51.624;5.886;2023-07-16T02:21:13;10.65;;;5.65;;
62707;SDS011;48769;51.624;5.886;2023-07-16T02:23:38;12.15;;;6.05;;
62707;SDS011;48769;51.624;5.886;2023-07-16T02:26:03;11.00;;;5.55;;
62707;SDS011;48769;51.624;5.886;2023-07-16T02:28:28;13.40;;;6.53;;
62707;SDS011;48769;51.624;5.886;2023-07-16T02:30:54;14.00;;;6.40;;
62707;SDS011;48769;51.624;5.886;2023-07-16T02:33:19;11.23;;;6.38;;
62707;SDS011;48769;51.624;5.886;2023-07-16T02:35:48;14.90;;;6.43;;
62707;SDS011;48769;51.624;5.886;2023-07-16T02:38:14;16.30;;;6.22;;
62707;SDS011;48769;51.624;5.886;2023-07-16T02:40:43;13.18;;;6.68;;
62707;SDS011;48769;51.624;5.886;2023-07-16T02:43:10;10.15;;;6.50;;
62707;SDS011;48769;51.624;5.886;2023-07-16T02:45:35;9.68;;;5.75;;
62707;SDS011;48769;51.624;5.886;2023-07-16T02:48:00;10.90;;;6.47;;
62707;SDS011;48769;51.624;5.886;2023-07-16T02:50:27;13.10;;;6.40;;
62707;SDS011;48769;51.624;5.886;2023-07-16T02:52:52;9.75;;;6.60;;
62707;SDS011;48769;51.624;5.886;2023-07-16T02:55:17;13.95;;;7.53;;
62707;SDS011;48769;51.624;5.886;2023-07-16T02:57:42;13.40;;;7.00;;
62707;SDS011;48769;51.624;5.886;2023-07-16T03:00:08;12.93;;;6.65;;
62707;SDS011;48769;51.624;5.886;2023-07-16T03:02:33;14.40;;;6.50;;
62707;SDS011;48769;51.624;5.886;2023-07-16T03:04:59;13.70;;;6.60;;
62707;SDS011;48769;51.624;5.886;2023-07-16T03:07:24;14.10;;;7.68;;
62707;SDS011;48769;51.624;5.886;2023-07-16T03:09:49;10.27;;;6.95;;
62707;SDS011;48769;51.624;5.886;2023-07-16T03:12:14;16.08;;;6.93;;
62707;SDS011;48769;51.624;5.886;2023-07-16T03:14:40;13.23;;;7.15;;
62707;SDS011;48769;51.624;5.886;2023-07-16T03:17:05;12.38;;;6.57;;
62707;SDS011;48769;51.624;5.886;2023-07-16T03:19:31;12.98;;;6.95;;
62707;SDS011;48769;51.624;5.886;2023-07-16T03:21:57;14.82;;;6.55;;
62707;SDS011;48769;51.624;5.886;2023-07-16T03:24:22;16.67;;;6.40;;
62707;SDS011;48769;51.624;5.886;2023-07-16T03:26:48;12.38;;;6.07;;
62707;SDS011;48769;51.624;5.886;2023-07-16T03:29:13;13.27;;;5.80;;
62707;SDS011;48769;51.624;5.886;2023-07-16T03:31:38;11.95;;;5.93;;
62707;SDS011;48769;51.624;5.886;2023-07-16T03:34:04;10.07;;;4.75;;
62707;SDS011;48769;51.624;5.886;2023-07-16T03:36:29;11.32;;;5.13;;
62707;SDS011;48769;51.624;5.886;2023-07-16T03:38:54;9.40;;;5.72;;
62707;SDS011;48769;51.624;5.886;2023-07-16T03:41:19;10.75;;;4.90;;
62707;SDS011;48769;51.624;5.886;2023-07-16T03:43:45;12.57;;;5.50;;
62707;SDS011;48769;51.624;5.886;2023-07-16T03:46:10;14.30;;;5.13;;
62707;SDS011;48769;51.624;5.886;2023-07-16T03:48:35;9.35;;;5.15;;
62707;SDS011;48769;51.624;5.886;2023-07-16T03:51:01;11.60;;;6.18;;
62707;SDS011;48769;51.624;5.886;2023-07-16T03:53:26;13.85;;;5.10;;
62707;SDS011;48769;51.624;5.886;2023-07-16T03:55:52;11.93;;;5.00;;
62707;SDS011;48769;51.624;5.886;2023-07-16T03:58:17;13.88;;;5.38;;
62707;SDS011;48769;51.624;5.886;2023-07-16T04:00:42;13.75;;;5.35;;
62707;SDS011;48769;51.624;5.886;2023-07-16T04:03:09;15.13;;;5.55;;
62707;SDS011;48769;51.624;5.886;2023-07-16T04:05:34;22.15;;;5.35;;
62707;SDS011;48769;51.624;5.886;2023-07-16T04:07:59;12.52;;;5.75;;
62707;SDS011;48769;51.624;5.886;2023-07-16T04:10:24;17.33;;;5.65;;
62707;SDS011;48769;51.624;5.886;2023-07-16T04:12:50;13.20;;;5.22;;
62707;SDS011;48769;51.624;5.886;2023-07-16T04:15:15;18.50;;;5.43;;
62707;SDS011;48769;51.624;5.886;2023-07-16T04:17:40;10.40;;;5.25;;
62707;SDS011;48769;51.624;5.886;2023-07-16T04:20:06;16.40;;;4.82;;
62707;SDS011;48769;51.624;5.886;2023-07-16T04:22:33;12.23;;;5.03;;
62707;SDS011;48769;51.624;5.886;2023-07-16T04:24:58;7.38;;;4.50;;
62707;SDS011;48769;51.624;5.886;2023-07-16T04:27:24;14.25;;;5.68;;
62707;SDS011;48769;51.624;5.886;2023-07-16T04:29:49;12.73;;;5.28;;
62707;SDS011;48769;51.624;5.886;2023-07-16T04:32:14;13.55;;;5.18;;
62707;SDS011;48769;51.624;5.886;2023-07-16T04:34:40;14.57;;;5.38;;
62707;SDS011;48769;51.624;5.886;2023-07-16T04:37:05;14.15;;;5.18;;
62707;SDS011;48769;51.624;5.886;2023-07-16T04:39:30;13.85;;;5.75;;
62707;SDS011;48769;51.624;5.886;2023-07-16T04:41:56;15.40;;;5.75;;
62707;SDS011;48769;51.624;5.886;2023-07-16T04:44:21;14.00;;;6.35;;
62707;SDS011;48769;51.624;5.886;2023-07-16T04:46:46;18.40;;;5.65;;
62707;SDS011;48769;51.624;5.886;2023-07-16T04:49:11;19.80;;;6.43;;
62707;SDS011;48769;51.624;5.886;2023-07-16T04:51:37;16.02;;;6.50;;
62707;SDS011;48769;51.624;5.886;2023-07-16T04:54:02;13.15;;;5.63;;
62707;SDS011;48769;51.624;5.886;2023-07-16T04:56:27;15.20;;;6.10;;
62707;SDS011;48769;51.624;5.886;2023-07-16T04:58:53;16.95;;;6.60;;
62707;SDS011;48769;51.624;5.886;2023-07-16T05:01:18;15.82;;;6.82;;
62707;SDS011;48769;51.624;5.886;2023-07-16T05:03:45;12.52;;;6.78;;
62707;SDS011;48769;51.624;5.886;2023-07-16T05:06:10;13.73;;;6.15;;
62707;SDS011;48769;51.624;5.886;2023-07-16T05:08:36;13.40;;;5.95;;
62707;SDS011;48769;51.624;5.886;2023-07-16T05:11:01;14.48;;;5.88;;
62707;SDS011;48769;51.624;5.886;2023-07-16T05:13:27;19.00;;;6.38;;
62707;SDS011;48769;51.624;5.886;2023-07-16T05:15:52;13.23;;;6.15;;
62707;SDS011;48769;51.624;5.886;2023-07-16T05:18:17;14.18;;;6.68;;
62707;SDS011;48769;51.624;5.886;2023-07-16T05:20:42;15.30;;;5.97;;
62707;SDS011;48769;51.624;5.886;2023-07-16T05:23:09;18.63;;;6.20;;
62707;SDS011;48769;51.624;5.886;2023-07-16T05:25:35;11.63;;;5.80;;
62707;SDS011;48769;51.624;5.886;2023-07-16T05:28:00;10.05;;;5.82;;
62707;SDS011;48769;51.624;5.886;2023-07-16T05:30:25;15.98;;;6.05;;
62707;SDS011;48769;51.624;5.886;2023-07-16T05:32:51;12.77;;;5.78;;
62707;SDS011;48769;51.624;5.886;2023-07-16T05:35:16;17.30;;;6.13;;
62707;SDS011;48769;51.624;5.886;2023-07-16T05:37:41;13.50;;;6.43;;
62707;SDS011;48769;51.624;5.886;2023-07-16T05:40:07;13.73;;;5.95;;
62707;SDS011;48769;51.624;5.886;2023-07-16T05:42:33;14.48;;;6.50;;
62707;SDS011;48769;51.624;5.886;2023-07-16T05:44:59;20.10;;;6.50;;
62707;SDS011;48769;51.624;5.886;2023-07-16T05:47:24;16.30;;;6.05;;
62707;SDS011;48769;51.624;5.886;2023-07-16T05:49:49;17.73;;;6.85;;
62707;SDS011;48769;51.624;5.886;2023-07-16T05:52:15;13.15;;;5.88;;
62707;SDS011;48769;51.624;5.886;2023-07-16T05:54:40;16.27;;;7.30;;
62707;SDS011;48769;51.624;5.886;2023-07-16T05:57:05;17.35;;;6.93;;
62707;SDS011;48769;51.624;5.886;2023-07-16T05:59:31;16.33;;;6.63;;
62707;SDS011;48769;51.624;5.886;2023-07-16T06:02:01;14.05;;;6.32;;
62707;SDS011;48769;51.624;5.886;2023-07-16T06:04:26;15.60;;;7.30;;
62707;SDS011;48769;51.624;5.886;2023-07-16T06:06:52;17.17;;;7.57;;
62707;SDS011;48769;51.624;5.886;2023-07-16T06:09:17;16.05;;;6.43;;
62707;SDS011;48769;51.624;5.886;2023-07-16T06:11:45;17.95;;;6.82;;
62707;SDS011;48769;51.624;5.886;2023-07-16T06:14:11;16.23;;;7.18;;
62707;SDS011;48769;51.624;5.886;2023-07-16T06:16:36;16.90;;;7.30;;
62707;SDS011;48769;51.624;5.886;2023-07-16T06:19:02;14.15;;;7.22;;
62707;SDS011;48769;51.624;5.886;2023-07-16T06:21:27;17.83;;;7.00;;
62707;SDS011;48769;51.624;5.886;2023-07-16T06:23:53;17.73;;;8.05;;
62707;SDS011;48769;51.624;5.886;2023-07-16T06:26:18;19.25;;;7.20;;
62707;SDS011;48769;51.624;5.886;2023-07-16T06:28:43;16.38;;;6.95;;
62707;SDS011;48769;51.624;5.886;2023-07-16T06:31:08;21.75;;;7.32;;
62707;SDS011;48769;51.624;5.886;2023-07-16T06:33:35;14.18;;;7.38;;
62707;SDS011;48769;51.624;5.886;2023-07-16T06:36:00;15.88;;;7.78;;
62707;SDS011;48769;51.624;5.886;2023-07-16T06:38:26;18.00;;;7.05;;
62707;SDS011;48769;51.624;5.886;2023-07-16T06:40:51;17.83;;;7.60;;
62707;SDS011;48769;51.624;5.886;2023-07-16T06:43:17;14.13;;;6.97;;
62707;SDS011;48769;51.624;5.886;2023-07-16T06:45:43;20.42;;;7.93;;
62707;SDS011;48769;51.624;5.886;2023-07-16T06:48:09;16.45;;;8.07;;
62707;SDS011;48769;51.624;5.886;2023-07-16T06:50:34;17.23;;;7.82;;
62707;SDS011;48769;51.624;5.886;2023-07-16T06:52:59;17.02;;;7.70;;
62707;SDS011;48769;51.624;5.886;2023-07-16T06:55:25;14.63;;;7.20;;
62707;SDS011;48769;51.624;5.886;2023-07-16T06:57:50;15.00;;;7.20;;
62707;SDS011;48769;51.624;5.886;2023-07-16T07:00:15;16.38;;;7.70;;
62707;SDS011;48769;51.624;5.886;2023-07-16T07:02:41;16.25;;;7.57;;
62707;SDS011;48769;51.624;5.886;2023-07-16T07:05:07;15.07;;;7.75;;
62707;SDS011;48769;51.624;5.886;2023-07-16T07:07:32;15.95;;;8.43;;
62707;SDS011;48769;51.624;5.886;2023-07-16T07:09:58;17.80;;;8.25;;
62707;SDS011;48769;51.624;5.886;2023-07-16T07:12:23;16.30;;;7.75;;
62707;SDS011;48769;51.624;5.886;2023-07-16T07:14:48;17.15;;;8.27;;
62707;SDS011;48769;51.624;5.886;2023-07-16T07:17:14;19.48;;;7.82;;
62707;SDS011;48769;51.624;5.886;2023-07-16T07:19:40;19.15;;;8.57;;
62707;SDS011;48769;51.624;5.886;2023-07-16T07:22:06;16.30;;;8.52;;
62707;SDS011;48769;51.624;5.886;2023-07-16T07:24:32;14.95;;;7.68;;
62707;SDS011;48769;51.624;5.886;2023-07-16T07:26:57;16.88;;;8.52;;
62707;SDS011;48769;51.624;5.886;2023-07-16T07:29:23;18.85;;;8.63;;
62707;SDS011;48769;51.624;5.886;2023-07-16T07:31:48;17.20;;;7.90;;
62707;SDS011;48769;51.624;5.886;2023-07-16T07:34:14;13.02;;;7.95;;
62707;SDS011;48769;51.624;5.886;2023-07-16T07:36:39;15.10;;;9.18;;
62707;SDS011;48769;51.624;5.886;2023-07-16T07:39:04;22.10;;;8.75;;
62707;SDS011;48769;51.624;5.886;2023-07-16T07:41:31;20.75;;;8.75;;
62707;SDS011;48769;51.624;5.886;2023-07-16T07:43:56;18.38;;;8.20;;
62707;SDS011;48769;51.624;5.886;2023-07-16T07:46:21;18.05;;;8.63;;
62707;SDS011;48769;51.624;5.886;2023-07-16T07:48:46;19.77;;;8.27;;
62707;SDS011;48769;51.624;5.886;2023-07-16T07:51:12;18.73;;;8.88;;
62707;SDS011;48769;51.624;5.886;2023-07-16T07:53:37;18.92;;;9.13;;
62707;SDS011;48769;51.624;5.886;2023-07-16T07:56:03;18.23;;;8.82;;
62707;SDS011;48769;51.624;5.886;2023-07-16T07:58:29;16.23;;;8.48;;
62707;SDS011;48769;51.624;5.886;2023-07-16T08:00:54;17.92;;;8.55;;
62707;SDS011;48769;51.624;5.886;2023-07-16T08:03:19;15.85;;;8.15;;
62707;SDS011;48769;51.624;5.886;2023-07-16T08:05:47;14.45;;;7.97;;
62707;SDS011;48769;51.624;5.886;2023-07-16T08:08:13;15.18;;;8.57;;
62707;SDS011;48769;51.624;5.886;2023-07-16T08:10:39;15.25;;;7.90;;
62707;SDS011;48769;51.624;5.886;2023-07-16T08:13:05;18.45;;;8.35;;
62707;SDS011;48769;51.624;5.886;2023-07-16T08:15:31;17.75;;;7.78;;
62707;SDS011;48769;51.624;5.886;2023-07-16T08:17:56;13.20;;;7.18;;
62707;SDS011;48769;51.624;5.886;2023-07-16T08:20:24;19.27;;;7.72;;
62707;SDS011;48769;51.624;5.886;2023-07-16T08:22:49;16.23;;;7.95;;
62707;SDS011;48769;51.624;5.886;2023-07-16T08:25:14;13.68;;;7.90;;
62707;SDS011;48769;51.624;5.886;2023-07-16T08:27:40;15.98;;;7.47;;
62707;SDS011;48769;51.624;5.886;2023-07-16T08:30:05;15.52;;;7.43;;
62707;SDS011;48769;51.624;5.886;2023-07-16T08:32:31;17.25;;;7.93;;
62707;SDS011;48769;51.624;5.886;2023-07-16T08:34:56;15.35;;;7.15;;
62707;SDS011;48769;51.624;5.886;2023-07-16T08:37:22;17.70;;;8.25;;
62707;SDS011;48769;51.624;5.886;2023-07-16T08:39:50;19.98;;;9.00;;
62707;SDS011;48769;51.624;5.886;2023-07-16T08:42:17;17.27;;;8.05;;
62707;SDS011;48769;51.624;5.886;2023-07-16T08:44:42;19.67;;;7.75;;
62707;SDS011;48769;51.624;5.886;2023-07-16T08:47:07;13.75;;;7.93;;
62707;SDS011;48769;51.624;5.886;2023-07-16T08:49:34;22.85;;;7.95;;
62707;SDS011;48769;51.624;5.886;2023-07-16T08:52:00;14.88;;;7.13;;
62707;SDS011;48769;51.624;5.886;2023-07-16T08:54:26;15.45;;;7.05;;
62707;SDS011;48769;51.624;5.886;2023-07-16T08:56:51;13.00;;;6.43;;
62707;SDS011;48769;51.624;5.886;2023-07-16T08:59:17;14.65;;;6.63;;
62707;SDS011;48769;51.624;5.886;2023-07-16T09:01:43;16.75;;;6.68;;
62707;SDS011;48769;51.624;5.886;2023-07-16T09:04:11;11.18;;;5.68;;
62707;SDS011;48769;51.624;5.886;2023-07-16T09:06:36;12.05;;;6.65;;
62707;SDS011;48769;51.624;5.886;2023-07-16T09:09:01;15.45;;;6.53;;
62707;SDS011;48769;51.624;5.886;2023-07-16T09:11:27;14.60;;;6.13;;
62707;SDS011;48769;51.624;5.886;2023-07-16T09:13:52;11.15;;;6.20;;
62707;SDS011;48769;51.624;5.886;2023-07-16T09:16:18;16.85;;;7.60;;
62707;SDS011;48769;51.624;5.886;2023-07-16T09:18:43;15.02;;;6.60;;
62707;SDS011;48769;51.624;5.886;2023-07-16T09:21:09;12.77;;;6.68;;
62707;SDS011;48769;51.624;5.886;2023-07-16T09:23:34;9.50;;;5.82;;
62707;SDS011;48769;51.624;5.886;2023-07-16T09:26:00;14.68;;;6.05;;
62707;SDS011;48769;51.624;5.886;2023-07-16T09:28:25;15.77;;;6.45;;
62707;SDS011;48769;51.624;5.886;2023-07-16T09:30:51;12.07;;;5.70;;
62707;SDS011;48769;51.624;5.886;2023-07-16T09:33:18;11.80;;;6.28;;
62707;SDS011;48769;51.624;5.886;2023-07-16T09:35:47;8.98;;;5.75;;
62707;SDS011;48769;51.624;5.886;2023-07-16T09:38:14;10.23;;;5.50;;
62707;SDS011;48769;51.624;5.886;2023-07-16T09:40:40;11.15;;;5.07;;
62707;SDS011;48769;51.624;5.886;2023-07-16T09:43:12;13.13;;;5.55;;
62707;SDS011;48769;51.624;5.886;2023-07-16T09:45:38;9.13;;;5.28;;
62707;SDS011;48769;51.624;5.886;2023-07-16T09:48:03;9.93;;;5.28;;
62707;SDS011;48769;51.624;5.886;2023-07-16T09:50:30;9.00;;;4.97;;
62707;SDS011;48769;51.624;5.886;2023-07-16T09:53:01;11.20;;;6.18;;
62707;SDS011;48769;51.624;5.886;2023-07-16T09:55:28;15.18;;;5.70;;
62707;SDS011;48769;51.624;5.886;2023-07-16T09:57:57;9.50;;;5.18;;
62707;SDS011;48769;51.624;5.886;2023-07-16T10:00:26;11.93;;;4.97;;
62707;SDS011;48769;51.624;5.886;2023-07-16T10:02:53;9.80;;;5.20;;
62707;SDS011;48769;51.624;5.886;2023-07-16T10:05:23;11.18;;;5.25;;
62707;SDS011;48769;51.624;5.886;2023-07-16T10:07:58;12.15;;;5.10;;
62707;SDS011;48769;51.624;5.886;2023-07-16T10:10:44;8.93;;;4.93;;
62707;SDS011;48769;51.624;5.886;2023-07-16T10:13:14;13.00;;;6.40;;
62707;SDS011;48769;51.624;5.886;2023-07-16T10:18:25;8.90;;;5.47;;
62707;SDS011;48769;51.624;5.886;2023-07-16T10:21:05;8.43;;;5.25;;
62707;SDS011;48769;51.624;5.886;2023-07-16T10:23:37;12.93;;;5.30;;
62707;SDS011;48769;51.624;5.886;2023-07-16T10:26:07;12.82;;;5.75;;
62707;SDS011;48769;51.624;5.886;2023-07-16T10:28:34;11.05;;;5.18;;
62707;SDS011;48769;51.624;5.886;2023-07-16T10:31:00;10.52;;;4.63;;
62707;SDS011;48769;51.624;5.886;2023-07-16T10:33:26;10.25;;;5.28;;
62707;SDS011;48769;51.624;5.886;2023-07-16T10:35:51;10.07;;;5.10;;
62707;SDS011;48769;51.624;5.886;2023-07-16T10:38:17;10.60;;;5.18;;
62707;SDS011;48769;51.624;5.886;2023-07-16T10:40:42;9.52;;;5.20;;
62707;SDS011;48769;51.624;5.886;2023-07-16T10:43:09;9.20;;;5.53;;
62707;SDS011;48769;51.624;5.886;2023-07-16T10:45:35;10.82;;;5.18;;
62707;SDS011;48769;51.624;5.886;2023-07-16T10:48:00;8.02;;;4.65;;
62707;SDS011;48769;51.624;5.886;2023-07-16T10:50:25;10.32;;;5.00;;
62707;SDS011;48769;51.624;5.886;2023-07-16T10:52:51;10.00;;;4.32;;
62707;SDS011;48769;51.624;5.886;2023-07-16T10:55:18;8.32;;;4.53;;
62707;SDS011;48769;51.624;5.886;2023-07-16T10:57:44;7.90;;;4.43;;
62707;SDS011;48769;51.624;5.886;2023-07-16T11:00:10;9.20;;;4.88;;
62707;SDS011;48769;51.624;5.886;2023-07-16T11:02:38;10.25;;;4.68;;
62707;SDS011;48769;51.624;5.886;2023-07-16T11:07:37;13.52;;;5.50;;
62707;SDS011;48769;51.624;5.886;2023-07-16T11:10:03;9.75;;;5.00;;
62707;SDS011;48769;51.624;5.886;2023-07-16T11:12:29;11.43;;;5.28;;
62707;SDS011;48769;51.624;5.886;2023-07-16T11:14:54;8.10;;;4.65;;
62707;SDS011;48769;51.624;5.886;2023-07-16T11:17:21;8.60;;;4.80;;
62707;SDS011;48769;51.624;5.886;2023-07-16T11:19:49;10.73;;;5.45;;
62707;SDS011;48769;51.624;5.886;2023-07-16T11:22:16;9.48;;;5.03;;
62707;SDS011;48769;51.624;5.886;2023-07-16T11:24:43;10.05;;;5.53;;
62707;SDS011;48769;51.624;5.886;2023-07-16T11:27:43;9.23;;;5.10;;
62707;SDS011;48769;51.624;5.886;2023-07-16T11:30:01;9.48;;;4.97;;
62707;SDS011;48769;51.624;5.886;2023-07-16T11:32:34;15.68;;;6.18;;
62707;SDS011;48769;51.624;5.886;2023-07-16T11:35:18;12.48;;;5.28;;
62707;SDS011;48769;51.624;5.886;2023-07-16T11:37:44;12.82;;;5.82;;
62707;SDS011;48769;51.624;5.886;2023-07-16T11:40:11;9.48;;;5.28;;
62707;SDS011;48769;51.624;5.886;2023-07-16T11:42:40;12.40;;;5.90;;
62707;SDS011;48769;51.624;5.886;2023-07-16T11:45:18;15.85;;;6.15;;
62707;SDS011;48769;51.624;5.886;2023-07-16T11:47:48;9.95;;;5.28;;
62707;SDS011;48769;51.624;5.886;2023-07-16T11:50:14;7.55;;;4.65;;
62707;SDS011;48769;51.624;5.886;2023-07-16T11:52:40;9.73;;;4.95;;
62707;SDS011;48769;51.624;5.886;2023-07-16T11:55:05;10.10;;;4.82;;
62707;SDS011;48769;51.624;5.886;2023-07-16T11:57:31;9.32;;;5.47;;
62707;SDS011;48769;51.624;5.886;2023-07-16T11:59:56;11.35;;;5.75;;
62707;SDS011;48769;51.624;5.886;2023-07-16T12:02:22;12.63;;;4.85;;
62707;SDS011;48769;51.624;5.886;2023-07-16T12:04:48;9.98;;;4.85;;
62707;SDS011;48769;51.624;5.886;2023-07-16T12:07:13;12.80;;;5.18;;
62707;SDS011;48769;51.624;5.886;2023-07-16T12:09:39;12.40;;;5.07;;
62707;SDS011;48769;51.624;5.886;2023-07-16T12:12:05;10.30;;;5.38;;
62707;SDS011;48769;51.624;5.886;2023-07-16T12:14:31;8.00;;;4.85;;
62707;SDS011;48769;51.624;5.886;2023-07-16T12:16:56;12.18;;;5.72;;
62707;SDS011;48769;51.624;5.886;2023-07-16T12:19:22;12.00;;;5.32;;
62707;SDS011;48769;51.624;5.886;2023-07-16T12:21:49;13.00;;;5.53;;
62707;SDS011;48769;51.624;5.886;2023-07-16T12:24:14;10.50;;;5.50;;
62707;SDS011;48769;51.624;5.886;2023-07-16T12:26:39;12.70;;;5.60;;
62707;SDS011;48769;51.624;5.886;2023-07-16T12:29:05;9.32;;;5.13;;
62707;SDS011;48769;51.624;5.886;2023-07-16T12:31:30;10.93;;;5.25;;
62707;SDS011;48769;51.624;5.886;2023-07-16T12:33:56;12.10;;;5.43;;
62707;SDS011;48769;51.624;5.886;2023-07-16T12:36:22;7.20;;;4.70;;
62707;SDS011;48769;51.624;5.886;2023-07-16T12:38:47;9.35;;;5.22;;
62707;SDS011;48769;51.624;5.886;2023-07-16T12:41:12;13.48;;;5.18;;
62707;SDS011;48769;51.624;5.886;2023-07-16T12:43:40;11.10;;;5.80;;
62707;SDS011;48769;51.624;5.886;2023-07-16T12:46:05;9.23;;;5.72;;
62707;SDS011;48769;51.624;5.886;2023-07-16T12:48:31;8.75;;;5.78;;
62707;SDS011;48769;51.624;5.886;2023-07-16T12:50:57;10.70;;;6.13;;
62707;SDS011;48769;51.624;5.886;2023-07-16T12:53:23;11.38;;;5.53;;
62707;SDS011;48769;51.624;5.886;2023-07-16T12:55:49;7.72;;;4.68;;
62707;SDS011;48769;51.624;5.886;2023-07-16T12:58:14;9.98;;;5.20;;
62707;SDS011;48769;51.624;5.886;2023-07-16T13:00:40;13.23;;;5.25;;
62707;SDS011;48769;51.624;5.886;2023-07-16T13:03:06;8.07;;;4.95;;
62707;SDS011;48769;51.624;5.886;2023-07-16T13:05:33;10.27;;;4.88;;
62707;SDS011;48769;51.624;5.886;2023-07-16T13:07:58;10.85;;;4.10;;
62707;SDS011;48769;51.624;5.886;2023-07-16T13:10:24;11.43;;;5.20;;
62707;SDS011;48769;51.624;5.886;2023-07-16T13:12:49;11.57;;;5.47;;
62707;SDS011;48769;51.624;5.886;2023-07-16T13:15:14;9.38;;;4.70;;
62707;SDS011;48769;51.624;5.886;2023-07-16T13:17:40;11.35;;;5.63;;
62707;SDS011;48769;51.624;5.886;2023-07-16T13:20:05;8.48;;;5.18;;
62707;SDS011;48769;51.624;5.886;2023-07-16T13:22:31;10.05;;;5.75;;
62707;SDS011;48769;51.624;5.886;2023-07-16T13:24:57;11.52;;;4.68;;
62707;SDS011;48769;51.624;5.886;2023-07-16T13:27:23;10.70;;;5.45;;
62707;SDS011;48769;51.624;5.886;2023-07-16T13:29:49;14.55;;;5.80;;
62707;SDS011;48769;51.624;5.886;2023-07-16T13:32:15;9.98;;;5.95;;
62707;SDS011;48769;51.624;5.886;2023-07-16T13:34:40;13.35;;;5.72;;
62707;SDS011;48769;51.624;5.886;2023-07-16T13:37:05;10.10;;;5.68;;
62707;SDS011;48769;51.624;5.886;2023-07-16T13:39:31;7.93;;;4.85;;
62707;SDS011;48769;51.624;5.886;2023-07-16T13:41:56;13.52;;;5.72;;
62707;SDS011;48769;51.624;5.886;2023-07-16T13:44:21;9.50;;;5.10;;
62707;SDS011;48769;51.624;5.886;2023-07-16T13:46:47;13.02;;;5.47;;
62707;SDS011;48769;51.624;5.886;2023-07-16T13:49:12;11.98;;;4.85;;
62707;SDS011;48769;51.624;5.886;2023-07-16T13:51:37;8.88;;;4.80;;
62707;SDS011;48769;51.624;5.886;2023-07-16T13:54:03;14.95;;;5.13;;
62707;SDS011;48769;51.624;5.886;2023-07-16T13:56:28;9.18;;;4.35;;
62707;SDS011;48769;51.624;5.886;2023-07-16T13:58:53;10.05;;;5.03;;
62707;SDS011;48769;51.624;5.886;2023-07-16T14:01:19;7.70;;;5.03;;
62707;SDS011;48769;51.624;5.886;2023-07-16T14:03:44;8.52;;;4.65;;
62707;SDS011;48769;51.624;5.886;2023-07-16T14:06:10;8.20;;;4.40;;
62707;SDS011;48769;51.624;5.886;2023-07-16T14:08:35;9.43;;;4.55;;
62707;SDS011;48769;51.624;5.886;2023-07-16T14:11:01;9.07;;;4.60;;
62707;SDS011;48769;51.624;5.886;2023-07-16T14:13:26;8.00;;;4.85;;
62707;SDS011;48769;51.624;5.886;2023-07-16T14:15:52;7.57;;;4.53;;
62707;SDS011;48769;51.624;5.886;2023-07-16T14:18:17;9.98;;;4.05;;
62707;SDS011;48769;51.624;5.886;2023-07-16T14:20:42;6.22;;;4.03;;
62707;SDS011;48769;51.624;5.886;2023-07-16T14:23:08;9.20;;;4.13;;
62707;SDS011;48769;51.624;5.886;2023-07-16T14:25:33;9.70;;;4.15;;
62707;SDS011;48769;51.624;5.886;2023-07-16T14:27:58;6.82;;;4.53;;
62707;SDS011;48769;51.624;5.886;2023-07-16T14:30:23;10.30;;;4.47;;
62707;SDS011;48769;51.624;5.886;2023-07-16T14:32:49;7.82;;;4.65;;
62707;SDS011;48769;51.624;5.886;2023-07-16T14:35:14;10.23;;;4.80;;
62707;SDS011;48769;51.624;5.886;2023-07-16T14:37:40;10.60;;;5.35;;
62707;SDS011;48769;51.624;5.886;2023-07-16T14:40:06;12.35;;;4.93;;
62707;SDS011;48769;51.624;5.886;2023-07-16T14:42:33;10.13;;;4.75;;
62707;SDS011;48769;51.624;5.886;2023-07-16T14:44:58;9.98;;;4.35;;
62707;SDS011;48769;51.624;5.886;2023-07-16T14:47:24;8.40;;;4.82;;